sensor_id;sensor_type;location;lat;lon;timestamp;pressure;altitude;pressure_sealevel;temperature;humidity
51123;BME280;37162;41.724;13.346;2022-10-31T10:35:32;97366.13;;;22.58;49.31
51123;BME280;37162;41.724;13.346;2022-10-31T10:38:07;97371.00;;;22.56;49.19
51123;BME280;37162;41.724;13.346;2022-10-31T10:40:34;97365.59;;;22.56;49.40
51123;BME280;37162;41.724;13.346;2022-10-31T10:43:36;97369.91;;;22.57;48.96
51123;BME280;37162;41.724;13.346;2022-10-31T10:51:43;97365.19;;;22.69;49.27
51123;BME280;37162;41.724;13.346;2022-10-31T10:59:53;97363.59;;;22.73;49.44
51123;BME280;37162;41.724;13.346;2022-10-31T11:02:22;97368.75;;;22.75;49.34
51123;BME280;37162;41.724;13.346;2022-10-31T11:05:00;97364.97;;;22.76;49.65
51123;BME280;37162;41.724;13.346;2022-10-31T11:07:37;97360.94;;;22.78;49.07
51123;BME280;37162;41.724;13.346;2022-10-31T11:10:04;97357.41;;;22.78;49.16
51123;BME280;37162;41.724;13.346;2022-10-31T11:12:33;97352.28;;;22.81;49.18
51123;BME280;37162;41.724;13.346;2022-10-31T11:15:03;97354.50;;;22.84;49.36
51123;BME280;37162;41.724;13.346;2022-10-31T11:17:33;97361.53;;;22.85;49.25
51123;BME280;37162;41.724;13.346;2022-10-31T11:22:47;97355.03;;;22.86;49.47
51123;BME280;37162;41.724;13.346;2022-10-31T11:27:45;97349.88;;;22.85;49.04
51123;BME280;37162;41.724;13.346;2022-10-31T11:30:13;97332.47;;;22.76;49.30
51123;BME280;37162;41.724;13.346;2022-10-31T11:32:46;97346.38;;;22.84;49.25
51123;BME280;37162;41.724;13.346;2022-10-31T11:35:16;97341.22;;;22.83;49.23
51123;BME280;37162;41.724;13.346;2022-10-31T11:37:45;97339.31;;;22.83;49.17
51123;BME280;37162;41.724;13.346;2022-10-31T11:40:25;97337.72;;;22.87;49.02
51123;BME280;37162;41.724;13.346;2022-10-31T11:42:53;97332.63;;;22.91;49.13
51123;BME280;37162;41.724;13.346;2022-10-31T11:47:50;97335.41;;;22.96;49.28
51123;BME280;37162;41.724;13.346;2022-10-31T11:50:56;97333.47;;;22.91;49.13
51123;BME280;37162;41.724;13.346;2022-10-31T11:53:19;97332.94;;;22.94;49.07
51123;BME280;37162;41.724;13.346;2022-10-31T11:56:03;97339.97;;;22.95;48.85
51123;BME280;37162;41.724;13.346;2022-10-31T11:58:29;97335.66;;;22.94;49.00
51123;BME280;37162;41.724;13.346;2022-10-31T12:00:56;97323.19;;;22.93;49.19
51123;BME280;37162;41.724;13.346;2022-10-31T12:06:07;97327.72;;;22.88;49.21
51123;BME280;37162;41.724;13.346;2022-10-31T12:08:38;97328.22;;;22.85;49.67
51123;BME280;37162;41.724;13.346;2022-10-31T12:22:20;97315.25;;;22.60;49.86
51123;BME280;37162;41.724;13.346;2022-10-31T12:33:27;97296.28;;;22.33;50.23
51123;BME280;37162;41.724;13.346;2022-10-31T12:36:12;97293.78;;;22.26;50.61
51123;BME280;37162;41.724;13.346;2022-10-31T12:52:27;97287.66;;;21.92;51.19
51123;BME280;37162;41.724;13.346;2022-10-31T12:57:42;97285.63;;;21.82;51.33
51123;BME280;37162;41.724;13.346;2022-10-31T13:00:15;97280.75;;;21.79;51.31
51123;BME280;37162;41.724;13.346;2022-10-31T13:02:51;97277.72;;;21.76;51.37
51123;BME280;37162;41.724;13.346;2022-10-31T13:13:00;97276.47;;;21.61;51.74
51123;BME280;37162;41.724;13.346;2022-10-31T13:15:31;97273.91;;;21.55;52.01
51123;BME280;37162;41.724;13.346;2022-10-31T13:18:04;97277.47;;;21.55;52.26
51123;BME280;37162;41.724;13.346;2022-10-31T13:20:32;97277.69;;;21.54;52.33
51123;BME280;37162;41.724;13.346;2022-10-31T13:25:55;97276.56;;;21.50;52.45
51123;BME280;37162;41.724;13.346;2022-10-31T13:28:24;97275.19;;;21.47;52.73
51123;BME280;37162;41.724;13.346;2022-10-31T13:30:53;97270.53;;;21.42;52.59
51123;BME280;37162;41.724;13.346;2022-10-31T13:33:30;97277.56;;;21.43;52.70
51123;BME280;37162;41.724;13.346;2022-10-31T13:41:03;97276.69;;;21.38;52.59
51123;BME280;37162;41.724;13.346;2022-10-31T13:44:12;97267.97;;;21.36;52.63
51123;BME280;37162;41.724;13.346;2022-10-31T13:47:29;97271.19;;;21.33;52.70
51123;BME280;37162;41.724;13.346;2022-10-31T13:50:22;97267.06;;;21.30;53.02
51123;BME280;37162;41.724;13.346;2022-10-31T13:52:48;97265.44;;;21.29;52.98
51123;BME280;37162;41.724;13.346;2022-10-31T13:58:34;97253.41;;;21.20;53.39
51123;BME280;37162;41.724;13.346;2022-10-31T14:01:17;97203.44;;;20.84;53.13
51123;BME280;37162;41.724;13.346;2022-10-31T14:03:56;97158.78;;;20.59;53.50
51123;BME280;37162;41.724;13.346;2022-10-31T14:06:38;97187.59;;;20.71;53.29
51123;BME280;37162;41.724;13.346;2022-10-31T14:12:41;97204.50;;;20.83;53.57
51123;BME280;37162;41.724;13.346;2022-10-31T14:15:18;97264.16;;;21.15;53.36
51123;BME280;37162;41.724;13.346;2022-10-31T14:18:01;97261.50;;;21.20;53.60
51123;BME280;37162;41.724;13.346;2022-10-31T14:20:45;97208.00;;;20.83;53.38
51123;BME280;37162;41.724;13.346;2022-10-31T14:26:31;97252.38;;;21.04;53.58
51123;BME280;37162;41.724;13.346;2022-10-31T14:34:54;97195.69;;;20.71;53.63
51123;BME280;37162;41.724;13.346;2022-10-31T14:40:26;97259.22;;;21.12;53.94
51123;BME280;37162;41.724;13.346;2022-10-31T14:49:35;97257.28;;;21.07;54.08
51123;BME280;37162;41.724;13.346;2022-10-31T14:51:56;97263.75;;;21.06;54.22
51123;BME280;37162;41.724;13.346;2022-10-31T14:57:32;97230.78;;;20.87;54.30
51123;BME280;37162;41.724;13.346;2022-10-31T15:00:17;97251.50;;;20.99;54.35
51123;BME280;37162;41.724;13.346;2022-10-31T15:03:12;97221.50;;;20.83;54.23
51123;BME280;37162;41.724;13.346;2022-10-31T15:05:49;97258.59;;;21.05;54.25
51123;BME280;37162;41.724;13.346;2022-10-31T15:08:32;97263.19;;;21.04;54.45
51123;BME280;37162;41.724;13.346;2022-10-31T15:10:58;97261.22;;;21.00;54.08
51123;BME280;37162;41.724;13.346;2022-10-31T15:13:27;97257.44;;;21.01;54.09
51123;BME280;37162;41.724;13.346;2022-10-31T15:15:54;97262.84;;;21.01;53.31
51123;BME280;37162;41.724;13.346;2022-10-31T15:18:25;97259.81;;;20.97;53.79
51123;BME280;37162;41.724;13.346;2022-10-31T15:20:52;97272.03;;;21.00;54.14
51123;BME280;37162;41.724;13.346;2022-10-31T15:23:28;97263.41;;;21.03;54.23
51123;BME280;37162;41.724;13.346;2022-10-31T15:26:01;97269.88;;;21.02;54.38
51123;BME280;37162;41.724;13.346;2022-10-31T15:28:28;97263.94;;;21.00;54.37
51123;BME280;37162;41.724;13.346;2022-10-31T15:31:01;97262.84;;;21.01;54.53
51123;BME280;37162;41.724;13.346;2022-10-31T15:33:29;97270.88;;;20.96;54.77
51123;BME280;37162;41.724;13.346;2022-10-31T15:36:00;97265.22;;;20.97;54.73
51123;BME280;37162;41.724;13.346;2022-10-31T15:38:27;97271.22;;;20.99;54.73
51123;BME280;37162;41.724;13.346;2022-10-31T15:41:02;97273.09;;;20.99;54.83
51123;BME280;37162;41.724;13.346;2022-10-31T15:43:39;97274.94;;;20.98;54.91
51123;BME280;37162;41.724;13.346;2022-10-31T15:46:07;97270.28;;;20.93;54.82
51123;BME280;37162;41.724;13.346;2022-10-31T15:48:34;97273.31;;;20.97;54.93
51123;BME280;37162;41.724;13.346;2022-10-31T15:51:00;97270.88;;;20.96;54.97
51123;BME280;37162;41.724;13.346;2022-10-31T15:56:07;97276.28;;;20.96;54.86
51123;BME280;37162;41.724;13.346;2022-10-31T15:58:44;97269.16;;;20.89;55.00
51123;BME280;37162;41.724;13.346;2022-10-31T16:04:05;97274.25;;;20.86;54.90
51123;BME280;37162;41.724;13.346;2022-10-31T16:06:32;97287.56;;;20.92;54.94
51123;BME280;37162;41.724;13.346;2022-10-31T16:08:59;97271.19;;;20.82;54.95
51123;BME280;37162;41.724;13.346;2022-10-31T16:11:36;97292.16;;;20.92;54.76
51123;BME280;37162;41.724;13.346;2022-10-31T16:16:49;97286.19;;;20.90;54.90
51123;BME280;37162;41.724;13.346;2022-10-31T16:19:21;97291.81;;;20.88;54.86
51123;BME280;37162;41.724;13.346;2022-10-31T16:21:52;97288.00;;;20.84;54.61
51123;BME280;37162;41.724;13.346;2022-10-31T16:24:35;97291.25;;;20.86;54.66
51123;BME280;37162;41.724;13.346;2022-10-31T16:27:05;97293.97;;;20.86;54.54
51123;BME280;37162;41.724;13.346;2022-10-31T16:29:38;97297.47;;;20.87;54.61
51123;BME280;37162;41.724;13.346;2022-10-31T16:32:04;97297.94;;;20.84;54.96
51123;BME280;37162;41.724;13.346;2022-10-31T16:34:29;97303.13;;;20.85;55.06
51123;BME280;37162;41.724;13.346;2022-10-31T16:36:55;97285.19;;;20.79;55.30
51123;BME280;37162;41.724;13.346;2022-10-31T16:39:20;97301.50;;;20.84;55.24
51123;BME280;37162;41.724;13.346;2022-10-31T16:41:48;97302.53;;;20.83;55.40
51123;BME280;37162;41.724;13.346;2022-10-31T16:44:23;97307.13;;;20.83;55.20
51123;BME280;37162;41.724;13.346;2022-10-31T16:47:08;97298.13;;;20.77;54.96
51123;BME280;37162;41.724;13.346;2022-10-31T16:49:33;97310.06;;;20.81;54.78
51123;BME280;37162;41.724;13.346;2022-10-31T16:51:59;97313.84;;;20.80;54.45
51123;BME280;37162;41.724;13.346;2022-10-31T16:54:24;97316.28;;;20.82;54.56
51123;BME280;37162;41.724;13.346;2022-10-31T16:56:50;97328.38;;;20.79;54.16
51123;BME280;37162;41.724;13.346;2022-10-31T16:59:15;97294.19;;;20.68;54.09
51123;BME280;37162;41.724;13.346;2022-10-31T17:01:48;97325.13;;;20.77;54.00
51123;BME280;37162;41.724;13.346;2022-10-31T17:04:14;97327.56;;;20.79;53.89
51123;BME280;37162;41.724;13.346;2022-10-31T17:06:41;97324.56;;;20.75;53.99
51123;BME280;37162;41.724;13.346;2022-10-31T17:09:06;97323.97;;;20.73;54.01
51123;BME280;37162;41.724;13.346;2022-10-31T17:11:33;97324.44;;;20.70;53.96
51123;BME280;37162;41.724;13.346;2022-10-31T17:13:59;97333.22;;;20.77;53.83
51123;BME280;37162;41.724;13.346;2022-10-31T17:16:25;97325.84;;;20.73;53.86
51123;BME280;37162;41.724;13.346;2022-10-31T17:18:50;97340.78;;;20.75;54.19
51123;BME280;37162;41.724;13.346;2022-10-31T17:21:20;97337.72;;;20.72;53.89
51123;BME280;37162;41.724;13.346;2022-10-31T17:23:47;97344.50;;;20.74;54.04
51123;BME280;37162;41.724;13.346;2022-10-31T17:26:13;97349.09;;;20.74;54.21
51123;BME280;37162;41.724;13.346;2022-10-31T17:28:39;97348.88;;;20.75;54.92
51123;BME280;37162;41.724;13.346;2022-10-31T17:31:04;97346.66;;;20.72;54.83
51123;BME280;37162;41.724;13.346;2022-10-31T17:33:30;97348.53;;;20.72;54.58
51123;BME280;37162;41.724;13.346;2022-10-31T17:35:55;97353.41;;;20.75;54.61
51123;BME280;37162;41.724;13.346;2022-10-31T17:38:21;97358.00;;;20.74;54.51
51123;BME280;37162;41.724;13.346;2022-10-31T17:40:46;97359.91;;;20.74;54.51
51123;BME280;37162;41.724;13.346;2022-10-31T17:43:12;97359.06;;;20.73;54.51
51123;BME280;37162;41.724;13.346;2022-10-31T17:45:38;97366.09;;;20.74;54.75
51123;BME280;37162;41.724;13.346;2022-10-31T17:48:05;97366.09;;;20.74;54.61
51123;BME280;37162;41.724;13.346;2022-10-31T17:50:31;97360.97;;;20.73;54.53
51123;BME280;37162;41.724;13.346;2022-10-31T17:52:57;97358.72;;;20.70;54.65
51123;BME280;37162;41.724;13.346;2022-10-31T17:55:23;97358.25;;;20.73;54.58
51123;BME280;37162;41.724;13.346;2022-10-31T17:57:48;97361.69;;;20.68;54.39
51123;BME280;37162;41.724;13.346;2022-10-31T18:00:16;97369.31;;;20.71;54.46
51123;BME280;37162;41.724;13.346;2022-10-31T18:02:42;97352.44;;;20.64;54.40
51123;BME280;37162;41.724;13.346;2022-10-31T18:05:08;97358.66;;;20.64;54.63
51123;BME280;37162;41.724;13.346;2022-10-31T18:07:34;97363.91;;;20.71;54.69
51123;BME280;37162;41.724;13.346;2022-10-31T18:10:00;97354.06;;;20.65;54.37
51123;BME280;37162;41.724;13.346;2022-10-31T18:12:27;97373.06;;;20.70;54.76
51123;BME280;37162;41.724;13.346;2022-10-31T18:14:53;97348.09;;;20.63;54.51
51123;BME280;37162;41.724;13.346;2022-10-31T18:17:19;97363.31;;;20.69;54.61
51123;BME280;37162;41.724;13.346;2022-10-31T18:19:45;97358.41;;;20.66;54.60
51123;BME280;37162;41.724;13.346;2022-10-31T18:22:11;97358.66;;;20.64;54.58
51123;BME280;37162;41.724;13.346;2022-10-31T18:24:36;97371.41;;;20.69;54.84
51123;BME280;37162;41.724;13.346;2022-10-31T18:27:02;97370.59;;;20.68;54.72
51123;BME280;37162;41.724;13.346;2022-10-31T18:29:27;97369.53;;;20.70;54.95
51123;BME280;37162;41.724;13.346;2022-10-31T18:31:53;97362.50;;;20.68;54.65
51123;BME280;37162;41.724;13.346;2022-10-31T18:34:19;97367.91;;;20.68;54.74
51123;BME280;37162;41.724;13.346;2022-10-31T18:36:45;97351.53;;;20.58;54.52
51123;BME280;37162;41.724;13.346;2022-10-31T18:39:11;97360.88;;;20.67;54.55
51123;BME280;37162;41.724;13.346;2022-10-31T18:41:37;97368.16;;;20.67;54.68
51123;BME280;37162;41.724;13.346;2022-10-31T18:44:04;97348.81;;;20.58;54.62
51123;BME280;37162;41.724;13.346;2022-10-31T18:46:29;97338.19;;;20.52;54.50
51123;BME280;37162;41.724;13.346;2022-10-31T18:48:55;97357.34;;;20.67;54.67
51123;BME280;37162;41.724;13.346;2022-10-31T18:51:20;97365.72;;;20.65;54.60
51123;BME280;37162;41.724;13.346;2022-10-31T18:53:54;97349.63;;;20.59;54.74
51123;BME280;37162;41.724;13.346;2022-10-31T18:56:21;97358.41;;;20.66;54.73
51123;BME280;37162;41.724;13.346;2022-10-31T18:58:47;97349.06;;;20.57;54.60
51123;BME280;37162;41.724;13.346;2022-10-31T19:01:16;97355.03;;;20.59;54.78
51123;BME280;37162;41.724;13.346;2022-10-31T19:03:42;97363.22;;;20.64;54.88
51123;BME280;37162;41.724;13.346;2022-10-31T19:06:08;97367.56;;;20.65;54.70
51123;BME280;37162;41.724;13.346;2022-10-31T19:08:35;97364.03;;;20.64;54.74
51123;BME280;37162;41.724;13.346;2022-10-31T19:11:13;97363.22;;;20.64;54.39
51123;BME280;37162;41.724;13.346;2022-10-31T19:13:40;97367.00;;;20.63;54.67
51123;BME280;37162;41.724;13.346;2022-10-31T19:16:12;97378.63;;;20.63;54.55
51123;BME280;37162;41.724;13.346;2022-10-31T19:18:38;97356.09;;;20.58;54.46
51123;BME280;37162;41.724;13.346;2022-10-31T19:21:12;97363.47;;;20.62;54.53
51123;BME280;37162;41.724;13.346;2022-10-31T19:23:38;97368.06;;;20.62;54.38
51123;BME280;37162;41.724;13.346;2022-10-31T19:26:04;97364.56;;;20.61;54.46
51123;BME280;37162;41.724;13.346;2022-10-31T19:28:35;97352.50;;;20.52;54.29
51123;BME280;37162;41.724;13.346;2022-10-31T19:31:01;97363.72;;;20.61;54.39
51123;BME280;37162;41.724;13.346;2022-10-31T19:33:27;97356.56;;;20.55;54.35
51123;BME280;37162;41.724;13.346;2022-10-31T19:36:21;97367.25;;;20.61;54.26
51123;BME280;37162;41.724;13.346;2022-10-31T19:38:50;97372.88;;;20.60;54.65
51123;BME280;37162;41.724;13.346;2022-10-31T19:41:21;97368.53;;;20.59;54.40
51123;BME280;37162;41.724;13.346;2022-10-31T19:43:48;97354.84;;;20.49;54.66
51123;BME280;37162;41.724;13.346;2022-10-31T19:46:15;97370.16;;;20.60;54.46
51123;BME280;37162;41.724;13.346;2022-10-31T19:48:41;97376.63;;;20.59;54.78
51123;BME280;37162;41.724;13.346;2022-10-31T19:51:15;97364.75;;;20.60;54.57
51123;BME280;37162;41.724;13.346;2022-10-31T19:53:41;97363.94;;;20.59;54.68
51123;BME280;37162;41.724;13.346;2022-10-31T19:56:15;97371.22;;;20.59;54.57
51123;BME280;37162;41.724;13.346;2022-10-31T19:58:40;97381.78;;;20.60;54.45
51123;BME280;37162;41.724;13.346;2022-10-31T20:01:14;97364.59;;;20.50;54.66
51123;BME280;37162;41.724;13.346;2022-10-31T20:03:41;97372.31;;;20.58;54.36
51123;BME280;37162;41.724;13.346;2022-10-31T20:06:13;97380.41;;;20.58;54.30
51123;BME280;37162;41.724;13.346;2022-10-31T20:08:39;97390.38;;;20.57;54.19
51123;BME280;37162;41.724;13.346;2022-10-31T20:11:05;97379.59;;;20.57;53.89
51123;BME280;37162;41.724;13.346;2022-10-31T20:13:31;97387.69;;;20.57;53.59
51123;BME280;37162;41.724;13.346;2022-10-31T20:16:06;97391.66;;;20.55;53.58
51123;BME280;37162;41.724;13.346;2022-10-31T20:18:32;97396.00;;;20.56;53.49
51123;BME280;37162;41.724;13.346;2022-10-31T20:21:07;97392.50;;;20.55;53.58
51123;BME280;37162;41.724;13.346;2022-10-31T20:23:33;97391.66;;;20.55;53.61
51123;BME280;37162;41.724;13.346;2022-10-31T20:25:59;97399.19;;;20.53;53.62
51123;BME280;37162;41.724;13.346;2022-10-31T20:28:25;97399.78;;;20.55;53.88
51123;BME280;37162;41.724;13.346;2022-10-31T20:30:51;97405.97;;;20.55;53.80
51123;BME280;37162;41.724;13.346;2022-10-31T20:33:17;97402.72;;;20.53;53.42
51123;BME280;37162;41.724;13.346;2022-10-31T20:35:43;97396.50;;;20.53;53.38
51123;BME280;37162;41.724;13.346;2022-10-31T20:38:08;97403.53;;;20.54;53.49
51123;BME280;37162;41.724;13.346;2022-10-31T20:40:35;97408.13;;;20.53;53.36
51123;BME280;37162;41.724;13.346;2022-10-31T20:43:01;97399.66;;;20.50;53.36
51123;BME280;37162;41.724;13.346;2022-10-31T20:45:28;97405.66;;;20.52;53.30
51123;BME280;37162;41.724;13.346;2022-10-31T20:47:54;97405.66;;;20.52;53.36
51123;BME280;37162;41.724;13.346;2022-10-31T20:50:20;97404.81;;;20.51;53.43
51123;BME280;37162;41.724;13.346;2022-10-31T20:52:46;97395.59;;;20.47;53.48
51123;BME280;37162;41.724;13.346;2022-10-31T20:55:12;97410.22;;;20.51;53.63
51123;BME280;37162;41.724;13.346;2022-10-31T20:57:37;97405.06;;;20.50;53.59
51123;BME280;37162;41.724;13.346;2022-10-31T21:00:03;97406.94;;;20.49;53.52
51123;BME280;37162;41.724;13.346;2022-10-31T21:02:29;97413.16;;;20.50;53.92
51123;BME280;37162;41.724;13.346;2022-10-31T21:04:54;97407.78;;;20.50;53.79
51123;BME280;37162;41.724;13.346;2022-10-31T21:07:20;97406.13;;;20.49;54.03
51123;BME280;37162;41.724;13.346;2022-10-31T21:09:45;97410.47;;;20.50;54.15
51123;BME280;37162;41.724;13.346;2022-10-31T21:12:11;97409.53;;;20.44;54.08
51123;BME280;37162;41.724;13.346;2022-10-31T21:14:36;97413.16;;;20.50;54.30
51123;BME280;37162;41.724;13.346;2022-10-31T21:17:02;97419.38;;;20.50;54.34
51123;BME280;37162;41.724;13.346;2022-10-31T21:19:28;97412.34;;;20.49;54.35
51123;BME280;37162;41.724;13.346;2022-10-31T21:21:54;97410.47;;;20.50;54.46
51123;BME280;37162;41.724;13.346;2022-10-31T21:24:20;97402.84;;;20.47;54.05
51123;BME280;37162;41.724;13.346;2022-10-31T21:26:48;97409.41;;;20.51;54.58
51123;BME280;37162;41.724;13.346;2022-10-31T21:29:15;97411.53;;;20.49;54.24
51123;BME280;37162;41.724;13.346;2022-10-31T21:31:42;97415.88;;;20.50;54.39
51123;BME280;37162;41.724;13.346;2022-10-31T21:34:08;97404.94;;;20.45;54.23
51123;BME280;37162;41.724;13.346;2022-10-31T21:36:34;97407.78;;;20.50;54.19
51123;BME280;37162;41.724;13.346;2022-10-31T21:39:03;97409.66;;;20.49;54.15
51123;BME280;37162;41.724;13.346;2022-10-31T21:41:29;97406.94;;;20.49;54.09
51123;BME280;37162;41.724;13.346;2022-10-31T21:43:54;97406.94;;;20.49;54.21
51123;BME280;37162;41.724;13.346;2022-10-31T21:46:28;97412.34;;;20.49;54.15
51123;BME280;37162;41.724;13.346;2022-10-31T21:48:55;97406.94;;;20.49;54.29
51123;BME280;37162;41.724;13.346;2022-10-31T21:51:29;97394.03;;;20.39;54.39
51123;BME280;37162;41.724;13.346;2022-10-31T21:53:55;97407.88;;;20.43;54.39
51123;BME280;37162;41.724;13.346;2022-10-31T21:56:39;97408.03;;;20.48;54.50
51123;BME280;37162;41.724;13.346;2022-10-31T21:59:05;97405.31;;;20.48;54.65
51123;BME280;37162;41.724;13.346;2022-10-31T22:01:31;97398.38;;;20.40;54.47
51123;BME280;37162;41.724;13.346;2022-10-31T22:03:57;97394.97;;;20.45;54.41
51123;BME280;37162;41.724;13.346;2022-10-31T22:06:23;97394.41;;;20.43;54.49
51123;BME280;37162;41.724;13.346;2022-10-31T22:08:55;97401.56;;;20.49;54.43
51123;BME280;37162;41.724;13.346;2022-10-31T22:11:21;97389.22;;;20.41;54.44
51123;BME280;37162;41.724;13.346;2022-10-31T22:13:48;97388.19;;;20.42;54.32
51123;BME280;37162;41.724;13.346;2022-10-31T22:16:18;97394.97;;;20.45;54.23
51123;BME280;37162;41.724;13.346;2022-10-31T22:18:44;97401.81;;;20.48;54.16
51123;BME280;37162;41.724;13.346;2022-10-31T22:21:15;97401.81;;;20.48;54.29
51123;BME280;37162;41.724;13.346;2022-10-31T22:23:41;97393.72;;;20.48;54.05
51123;BME280;37162;41.724;13.346;2022-10-31T22:26:11;97396.41;;;20.48;54.11
51123;BME280;37162;41.724;13.346;2022-10-31T22:28:48;97395.59;;;20.47;53.91
51123;BME280;37162;41.724;13.346;2022-10-31T22:31:17;97385.69;;;20.41;54.15
51123;BME280;37162;41.724;13.346;2022-10-31T22:33:43;97396.03;;;20.44;54.20
51123;BME280;37162;41.724;13.346;2022-10-31T22:36:11;97396.59;;;20.46;54.49
51123;BME280;37162;41.724;13.346;2022-10-31T22:38:37;97397.44;;;20.47;54.49
51123;BME280;37162;41.724;13.346;2022-10-31T22:41:05;97385.13;;;20.39;54.62
51123;BME280;37162;41.724;13.346;2022-10-31T22:43:31;97386.66;;;20.47;54.56
51123;BME280;37162;41.724;13.346;2022-10-31T22:45:58;97399.28;;;20.46;54.58
51123;BME280;37162;41.724;13.346;2022-10-31T22:48:36;97397.44;;;20.47;54.48
51123;BME280;37162;41.724;13.346;2022-10-31T22:51:04;97394.97;;;20.45;54.56
51123;BME280;37162;41.724;13.346;2022-10-31T22:53:29;97390.38;;;20.46;54.37
51123;BME280;37162;41.724;13.346;2022-10-31T22:55:55;97397.66;;;20.45;54.37
51123;BME280;37162;41.724;13.346;2022-10-31T22:58:20;97394.16;;;20.45;54.31
51123;BME280;37162;41.724;13.346;2022-10-31T23:00:46;97386.41;;;20.36;54.09
51123;BME280;37162;41.724;13.346;2022-10-31T23:03:11;97389.22;;;20.41;54.08
51123;BME280;37162;41.724;13.346;2022-10-31T23:05:36;97400.59;;;20.43;54.19
51123;BME280;37162;41.724;13.346;2022-10-31T23:08:02;97398.72;;;20.44;54.07
51123;BME280;37162;41.724;13.346;2022-10-31T23:10:27;97397.09;;;20.43;54.02
51123;BME280;37162;41.724;13.346;2022-10-31T23:12:58;97396.28;;;20.42;53.72
51123;BME280;37162;41.724;13.346;2022-10-31T23:15:42;97398.97;;;20.42;54.00
51123;BME280;37162;41.724;13.346;2022-10-31T23:18:08;97390.06;;;20.42;54.24
51123;BME280;37162;41.724;13.346;2022-10-31T23:20:33;97396.28;;;20.42;54.33
51123;BME280;37162;41.724;13.346;2022-10-31T23:22:59;97391.69;;;20.43;54.24
51123;BME280;37162;41.724;13.346;2022-10-31T23:25:24;97388.19;;;20.42;54.20
51123;BME280;37162;41.724;13.346;2022-10-31T23:28:08;97390.88;;;20.42;54.46
51123;BME280;37162;41.724;13.346;2022-10-31T23:30:33;97395.47;;;20.42;54.25
51123;BME280;37162;41.724;13.346;2022-10-31T23:32:59;97383.25;;;20.39;54.29
51123;BME280;37162;41.724;13.346;2022-10-31T23:35:24;97394.63;;;20.41;54.20
51123;BME280;37162;41.724;13.346;2022-10-31T23:37:50;97383.00;;;20.41;54.17
51123;BME280;37162;41.724;13.346;2022-10-31T23:40:15;97382.19;;;20.40;54.20
51123;BME280;37162;41.724;13.346;2022-10-31T23:42:41;97376.44;;;20.37;54.30
51123;BME280;37162;41.724;13.346;2022-10-31T23:45:07;97384.06;;;20.40;54.07
51123;BME280;37162;41.724;13.346;2022-10-31T23:47:32;97376.69;;;20.35;54.10
51123;BME280;37162;41.724;13.346;2022-10-31T23:49:58;97377.84;;;20.39;53.92
51123;BME280;37162;41.724;13.346;2022-10-31T23:52:23;97379.72;;;20.39;54.15
51123;BME280;37162;41.724;13.346;2022-10-31T23:54:49;97375.16;;;20.39;53.76
51123;BME280;37162;41.724;13.346;2022-10-31T23:57:15;97377.84;;;20.39;53.82
51123;BME280;37162;41.724;13.346;2022-10-31T23:59:41;97373.53;;;20.38;53.70
